createdAt,value
2019-04-06T00:00:50.766Z,67.90
2019-04-06T00:03:19.356Z,66.70
2019-04-06T00:05:47.782Z,68.30
2019-04-06T00:08:16.360Z,66.70
2019-04-06T00:10:45.068Z,68.30
2019-04-06T00:13:13.573Z,68.00
2019-04-06T00:15:42.007Z,68.20
2019-04-06T00:18:10.458Z,67.70
2019-04-06T00:20:38.880Z,65.10
2019-04-06T00:23:07.378Z,64.60
2019-04-06T00:25:44.270Z,65.40
2019-04-06T00:28:06.216Z,66.60
2019-04-06T00:30:36.284Z,69.20
2019-04-06T00:33:06.449Z,68.50
2019-04-06T00:35:34.876Z,71.80
2019-04-06T00:38:03.377Z,72.40
2019-04-06T00:40:31.824Z,72.80
2019-04-06T00:43:00.253Z,76.30
2019-04-06T00:45:28.676Z,76.10
2019-04-06T00:47:57.137Z,76.00
2019-04-06T00:50:25.568Z,75.40
2019-04-06T00:52:53.993Z,74.20
2019-04-06T00:55:22.446Z,72.80
2019-04-06T00:57:50.874Z,71.70
2019-04-06T01:00:19.357Z,71.20
2019-04-06T01:02:47.970Z,71.20
2019-04-06T01:05:16.392Z,70.60
2019-04-06T01:07:44.820Z,69.90
2019-04-06T01:10:13.337Z,72.00
2019-04-06T01:12:41.833Z,72.90
2019-04-06T01:15:10.705Z,71.00
2019-04-06T01:17:39.164Z,69.50
2019-04-06T01:20:07.821Z,72.60
2019-04-06T01:22:36.253Z,72.50
2019-04-06T01:25:06.981Z,72.60
2019-04-06T01:27:35.433Z,74.00
2019-04-06T01:30:05.201Z,74.30
2019-04-06T01:32:33.816Z,73.50
2019-04-06T01:35:02.244Z,72.50
2019-04-06T01:37:30.668Z,73.40
2019-04-06T01:39:59.206Z,72.70
2019-04-06T01:42:27.825Z,73.20
2019-04-06T01:44:56.257Z,73.40
2019-04-06T01:47:24.706Z,73.20
2019-04-06T01:49:53.132Z,74.40
2019-04-06T01:52:21.559Z,72.30
2019-04-06T01:54:50.010Z,69.20
2019-04-06T01:57:18.438Z,70.80
2019-04-06T01:59:46.876Z,72.40
2019-04-06T02:02:17.027Z,73.60
2019-04-06T02:04:45.475Z,74.90
2019-04-06T02:07:13.955Z,75.70
2019-04-06T02:09:42.426Z,80.10
2019-04-06T02:12:10.849Z,81.30
2019-04-06T02:14:39.280Z,80.30
2019-04-06T02:17:07.723Z,79.00
2019-04-06T02:19:36.233Z,78.60
2019-04-06T02:22:04.711Z,75.80
2019-04-06T02:24:33.252Z,75.70
2019-04-06T02:27:01.772Z,75.40
2019-04-06T02:29:30.684Z,75.30
2019-04-06T02:32:01.107Z,73.10
2019-04-06T02:34:49.291Z,73.30
2019-04-06T02:37:22.312Z,73.00
2019-04-06T02:39:57.901Z,72.30
2019-04-06T02:42:34.157Z,72.30
2019-04-06T02:45:02.614Z,72.80
2019-04-06T02:47:31.090Z,74.50
2019-04-06T02:49:59.545Z,71.30
2019-04-06T02:52:28.078Z,71.30
2019-04-06T02:54:56.669Z,68.90
2019-04-06T02:57:25.140Z,68.60
2019-04-06T02:59:53.644Z,68.60
2019-04-06T03:02:22.214Z,69.40
2019-04-06T03:04:50.660Z,73.40
2019-04-06T03:07:19.085Z,74.40
2019-04-06T03:09:47.610Z,75.50
2019-04-06T03:12:16.122Z,74.80
2019-04-06T03:14:44.918Z,74.30
2019-04-06T03:17:13.552Z,76.50
2019-04-06T03:19:42.015Z,74.60
2019-04-06T03:22:10.453Z,74.90
2019-04-06T03:24:38.927Z,74.60
2019-04-06T03:27:07.518Z,73.50
2019-04-06T03:29:35.951Z,73.10
2019-04-06T03:32:04.529Z,76.10
2019-04-06T03:34:33.525Z,75.90
2019-04-06T03:37:02.525Z,74.40
2019-04-06T03:39:31.366Z,73.70
2019-04-06T03:42:00.223Z,75.00
2019-04-06T03:44:28.694Z,75.50
2019-04-06T03:46:57.147Z,75.30
2019-04-06T03:49:25.680Z,75.90
2019-04-06T03:51:54.112Z,76.60
2019-04-06T03:54:22.557Z,79.80
2019-04-06T03:56:51.022Z,80.20
2019-04-06T03:59:19.514Z,80.00
2019-04-06T04:01:47.954Z,84.00
2019-04-06T04:04:16.570Z,88.80
2019-04-06T04:06:45.049Z,88.40
2019-04-06T04:09:14.453Z,88.80
2019-04-06T04:11:42.914Z,89.20
2019-04-06T04:14:11.437Z,90.10
2019-04-06T04:16:40.022Z,90.00
2019-04-06T04:19:08.529Z,90.00
2019-04-06T04:21:36.968Z,91.30
2019-04-06T04:24:05.479Z,91.00
2019-04-06T04:26:33.935Z,89.20
2019-04-06T04:29:02.478Z,88.50
2019-04-06T04:31:30.978Z,87.90
2019-04-06T04:33:59.437Z,88.60
2019-04-06T04:36:27.876Z,87.60
2019-04-06T04:38:56.304Z,87.70
2019-04-06T04:41:24.854Z,87.50
2019-04-06T04:43:53.345Z,86.60
2019-04-06T04:46:21.852Z,86.10
2019-04-06T04:48:50.310Z,85.50
2019-04-06T04:51:18.898Z,85.40
2019-04-06T04:53:47.460Z,85.00
2019-04-06T04:56:15.915Z,85.10
2019-04-06T04:58:44.345Z,84.80
2019-04-06T05:01:12.790Z,85.00
2019-04-06T05:03:41.243Z,84.70
2019-04-06T05:06:09.672Z,85.90
2019-04-06T05:08:43.846Z,86.90
2019-04-06T05:11:12.334Z,88.70
2019-04-06T05:13:40.769Z,90.10
2019-04-06T05:16:10.842Z,90.30
2019-04-06T05:18:40.528Z,90.30
2019-04-06T05:21:09.188Z,90.40
2019-04-06T05:23:37.627Z,90.00
2019-04-06T05:26:06.395Z,89.80
2019-04-06T05:28:35.288Z,89.90
2019-04-06T05:31:03.980Z,86.70
2019-04-06T05:33:32.521Z,87.20
2019-04-06T05:36:00.958Z,84.80
2019-04-06T05:38:29.380Z,83.30
2019-04-06T05:40:57.826Z,82.90
2019-04-06T05:43:26.257Z,81.90
2019-04-06T05:45:54.692Z,81.70
2019-04-06T05:48:23.138Z,80.00
2019-04-06T05:50:51.672Z,78.50
2019-04-06T05:53:20.214Z,76.30
2019-04-06T05:55:48.728Z,71.70
2019-04-06T05:58:17.186Z,70.50
2019-04-06T06:00:45.800Z,71.80
2019-04-06T06:03:15.466Z,66.50
2019-04-06T06:05:44.076Z,68.20
2019-04-06T06:08:12.672Z,70.50
2019-04-06T06:10:41.124Z,72.10
2019-04-06T06:13:09.821Z,67.10
2019-04-06T06:15:38.296Z,70.10
2019-04-06T06:18:06.808Z,70.70
2019-04-06T06:20:35.301Z,68.70
2019-04-06T06:23:03.862Z,69.30
2019-04-06T06:25:32.645Z,62.80
2019-04-06T06:28:01.371Z,52.70
2019-04-06T06:30:29.892Z,56.70
2019-04-06T06:32:58.341Z,53.70
2019-04-06T06:35:26.846Z,47.30
2019-04-06T06:37:55.268Z,47.20
2019-04-06T06:40:23.725Z,40.70
2019-04-06T06:42:52.152Z,39.90
2019-04-06T06:45:20.604Z,41.00
2019-04-06T06:47:49.039Z,23.60
2019-04-06T06:50:17.600Z,37.70
2019-04-06T06:52:46.260Z,31.10
2019-04-06T06:55:14.928Z,42.50
2019-04-06T06:57:43.532Z,35.70
2019-04-06T07:00:12.892Z,27.60
2019-04-06T07:02:41.368Z,18.20
2019-04-06T07:05:10.585Z,19.30
2019-04-06T07:07:39.060Z,6.90
2019-04-06T07:10:08.648Z,16.50
2019-04-06T07:12:37.092Z,17.30
2019-04-06T07:15:07.539Z,21.30
2019-04-06T07:17:35.998Z,22.80
2019-04-06T07:20:07.137Z,15.80
2019-04-06T07:22:35.597Z,13.20
2019-04-06T07:25:05.461Z,7.10
2019-04-06T07:27:33.890Z,9.80
2019-04-06T07:30:02.345Z,9.10
2019-04-06T07:32:30.772Z,9.20
2019-04-06T07:34:59.346Z,7.80
2019-04-06T07:37:27.947Z,2.90
2019-04-06T07:39:56.372Z,1.00
2019-04-06T07:42:24.821Z,1.00
2019-04-06T07:44:53.323Z,1.00
2019-04-06T07:47:21.864Z,1.00
2019-04-06T07:49:50.309Z,1.00
2019-04-06T07:52:18.761Z,1.00
2019-04-06T07:54:47.200Z,1.00
2019-04-06T07:57:15.644Z,1.00
2019-04-06T07:59:44.076Z,1.00
2019-04-06T08:02:12.495Z,1.00
2019-04-06T08:04:40.978Z,1.00
2019-04-06T08:07:09.397Z,1.00
2019-04-06T08:09:37.858Z,1.00
2019-04-06T08:12:06.501Z,1.00
2019-04-06T08:14:35.113Z,1.00
2019-04-06T08:17:03.618Z,1.00
2019-04-06T08:19:32.198Z,1.00
2019-04-06T08:22:00.624Z,99.90
2019-04-06T08:24:29.160Z,1.00
2019-04-06T08:26:57.821Z,99.90
2019-04-06T08:29:26.511Z,99.90
2019-04-06T08:31:54.932Z,7.00
2019-04-06T08:34:23.696Z,1.00
2019-04-06T08:36:52.109Z,1.00
2019-04-06T08:39:20.558Z,99.90
2019-04-06T08:41:48.996Z,1.00
2019-04-06T08:44:17.423Z,1.00
2019-04-06T08:46:45.880Z,1.00
2019-04-06T08:49:14.543Z,99.90
2019-04-06T08:51:43.027Z,99.90
2019-04-06T08:54:11.481Z,1.00
2019-04-06T08:56:39.905Z,1.00
2019-04-06T08:59:12.094Z,99.90
2019-04-06T09:01:38.581Z,99.90
2019-04-06T09:04:07.042Z,1.00
2019-04-06T09:06:35.545Z,99.90
2019-04-06T09:09:06.117Z,99.90
2019-04-06T09:11:34.578Z,1.00
2019-04-06T09:14:03.186Z,99.90
2019-04-06T09:16:31.667Z,1.00
2019-04-06T09:19:00.217Z,1.00
2019-04-06T09:21:28.850Z,99.90
2019-04-06T09:23:58.702Z,1.00
2019-04-06T09:26:27.608Z,57.70
2019-04-06T09:28:56.137Z,1.00
2019-04-06T09:31:24.640Z,1.00
2019-04-06T09:33:53.602Z,1.00
2019-04-06T09:36:22.136Z,1.00
2019-04-06T09:38:50.812Z,1.00
2019-04-06T09:41:19.566Z,92.10
2019-04-06T09:43:48.206Z,1.00
2019-04-06T09:46:40.368Z,1.00
2019-04-06T09:49:10.456Z,1.00
2019-04-06T09:51:58.475Z,1.00
2019-04-06T09:54:34.454Z,1.00
2019-04-06T09:57:21.065Z,1.00
2019-04-06T10:00:00.358Z,1.00
2019-04-06T10:02:30.493Z,1.00
2019-04-06T10:05:03.434Z,1.00
2019-04-06T10:07:39.468Z,99.90
2019-04-06T10:10:15.492Z,1.00
2019-04-06T10:12:45.613Z,99.90
2019-04-06T10:15:30.833Z,99.90
2019-04-06T10:18:03.916Z,99.90
2019-04-06T10:20:46.264Z,99.90
2019-04-06T10:23:19.105Z,99.90
2019-04-06T10:25:55.236Z,99.90
2019-04-06T10:28:34.380Z,99.90
2019-04-06T10:31:07.441Z,99.90
2019-04-06T10:33:42.976Z,99.90
2019-04-06T10:36:25.301Z,99.90
2019-04-06T10:38:55.565Z,99.90
2019-04-06T10:41:31.714Z,99.90
2019-04-06T10:44:18.440Z,99.90
2019-04-06T10:46:48.746Z,99.90
2019-04-06T10:49:22.049Z,99.90
2019-04-06T10:52:04.029Z,99.90
2019-04-06T10:54:50.502Z,99.90
2019-04-06T10:57:33.004Z,99.90
2019-04-06T11:00:12.066Z,99.90
2019-04-06T11:03:00.205Z,99.90
2019-04-06T11:05:30.282Z,99.90
2019-04-06T11:08:00.599Z,99.90
2019-04-06T11:10:33.406Z,99.90
2019-04-06T11:13:03.490Z,99.90
2019-04-06T11:15:49.784Z,99.90
2019-04-06T11:18:34.902Z,99.90
2019-04-06T11:21:07.632Z,99.90
2019-04-06T11:23:37.735Z,99.90
2019-04-06T11:26:10.781Z,99.90
2019-04-06T11:28:58.998Z,99.90
2019-04-06T11:31:45.335Z,99.90
2019-04-06T11:34:15.558Z,99.90
2019-04-06T11:36:51.580Z,99.90
2019-04-06T11:39:21.735Z,99.90
2019-04-06T11:42:04.067Z,99.90
2019-04-06T11:44:40.800Z,99.90
2019-04-06T11:47:27.591Z,99.90
2019-04-06T11:50:00.666Z,99.90
2019-04-06T11:52:30.732Z,99.90
2019-04-06T11:55:06.960Z,96.70
2019-04-06T11:57:45.672Z,99.90
2019-04-06T12:00:26.599Z,94.30
2019-04-06T12:02:53.637Z,94.10
2019-04-06T12:05:29.877Z,72.10
2019-04-06T12:08:11.781Z,64.10
2019-04-06T12:10:44.858Z,84.30
2019-04-06T12:13:23.884Z,54.40
2019-04-06T12:16:03.040Z,76.40
2019-04-06T12:18:38.846Z,92.50
2019-04-06T12:21:11.735Z,99.90
2019-04-06T12:23:48.044Z,86.90
2019-04-06T12:26:23.912Z,72.90
2019-04-06T12:29:10.366Z,73.60
2019-04-06T12:31:46.579Z,91.10
2019-04-06T12:34:17.000Z,67.40
2019-04-06T12:36:50.192Z,65.30
2019-04-06T12:39:26.416Z,75.90
2019-04-06T12:42:12.464Z,75.20
2019-04-06T12:44:57.848Z,57.60
2019-04-06T12:47:27.949Z,79.00
2019-04-06T12:50:13.485Z,72.30
2019-04-06T12:52:49.336Z,91.90
2019-04-06T12:55:25.440Z,57.80
2019-04-06T12:57:58.258Z,45.30
2019-04-06T13:00:52.557Z,24.80
2019-04-06T13:03:28.920Z,30.60
2019-04-06T13:05:59.610Z,18.00
2019-04-06T13:08:41.344Z,8.40
2019-04-06T13:11:29.538Z,13.10
2019-04-06T13:14:14.652Z,8.40
2019-04-06T13:16:44.838Z,12.20
2019-04-06T13:19:20.692Z,1.60
2019-04-06T13:21:56.732Z,17.20
2019-04-06T13:24:29.305Z,9.20
2019-04-06T13:27:15.712Z,1.00
2019-04-06T13:29:45.776Z,1.00
2019-04-06T13:32:19.141Z,1.00
2019-04-06T13:34:54.721Z,1.00
2019-04-06T13:37:27.772Z,1.00
2019-04-06T13:39:57.842Z,1.00
2019-04-06T13:42:27.921Z,1.00
2019-04-06T13:45:13.036Z,1.00
2019-04-06T13:47:43.404Z,1.00
2019-04-06T13:50:14.220Z,1.00
2019-04-06T13:53:01.062Z,1.00
2019-04-06T13:55:47.615Z,1.00
2019-04-06T13:58:17.709Z,1.00
2019-04-06T14:01:13.598Z,1.00
2019-04-06T14:03:40.757Z,1.00
2019-04-06T14:06:26.757Z,1.00
2019-04-06T14:08:59.944Z,1.00
2019-04-06T14:11:36.048Z,1.00
2019-04-06T14:14:06.195Z,1.00
2019-04-06T14:16:38.901Z,1.00
2019-04-06T14:19:08.967Z,1.00
2019-04-06T14:21:39.056Z,1.00
2019-04-06T14:24:12.207Z,1.00
2019-04-06T14:26:42.340Z,1.00
2019-04-06T14:29:12.425Z,1.00
2019-04-06T14:31:48.529Z,1.00
2019-04-06T14:34:21.180Z,1.00
2019-04-06T14:37:03.205Z,1.00
2019-04-06T14:39:42.289Z,1.00
2019-04-06T14:42:18.437Z,1.00
2019-04-06T14:44:48.644Z,1.00
2019-04-06T14:47:30.698Z,1.00
2019-04-06T14:50:10.343Z,1.00
2019-04-06T14:52:40.537Z,1.00
2019-04-06T14:55:11.077Z,1.00
2019-04-06T14:57:44.438Z,1.00
2019-04-06T15:00:31.178Z,1.00
2019-04-06T15:03:10.425Z,1.00
2019-04-06T15:05:40.842Z,1.00
2019-04-06T15:08:11.256Z,1.00
2019-04-06T15:10:50.497Z,1.00
2019-04-06T15:13:26.720Z,1.00
2019-04-06T15:16:02.676Z,1.00
2019-04-06T15:18:32.744Z,1.00
2019-04-06T15:21:02.948Z,1.00
2019-04-06T15:23:39.035Z,1.00
2019-04-06T15:26:09.124Z,1.00
2019-04-06T15:28:54.619Z,1.00
2019-04-06T15:31:48.624Z,1.00
2019-04-06T15:34:23.032Z,1.00
2019-04-06T15:36:56.725Z,1.00
2019-04-06T15:39:42.088Z,1.00
2019-04-06T15:42:24.619Z,1.00
2019-04-06T15:45:11.905Z,1.00
2019-04-06T15:47:54.887Z,1.00
2019-04-06T15:50:28.082Z,1.00
2019-04-06T15:53:15.046Z,1.00
2019-04-06T15:55:57.640Z,1.00
2019-04-06T15:58:30.625Z,1.00
2019-04-06T16:01:07.059Z,1.00
2019-04-06T16:03:38.252Z,1.00
2019-04-06T16:06:24.870Z,1.00
2019-04-06T16:08:57.420Z,1.00
2019-04-06T16:11:36.733Z,1.00
2019-04-06T16:14:23.698Z,1.00
2019-04-06T16:16:56.623Z,1.00
2019-04-06T16:19:43.080Z,1.00
2019-04-06T16:22:29.561Z,1.00
2019-04-06T16:24:59.898Z,1.00
2019-04-06T16:27:42.543Z,1.00
2019-04-06T16:30:13.104Z,1.00
2019-04-06T16:32:46.139Z,1.00
2019-04-06T16:35:16.231Z,1.00
2019-04-06T16:37:52.650Z,1.00
2019-04-06T16:40:39.349Z,1.00
2019-04-06T16:43:15.572Z,1.00
2019-04-06T16:45:45.655Z,1.00
2019-04-06T16:48:34.139Z,1.00
2019-04-06T16:51:19.249Z,1.00
2019-04-06T16:53:49.320Z,1.00
2019-04-06T16:56:22.128Z,1.00
2019-04-06T16:59:01.256Z,1.00
2019-04-06T17:01:31.314Z,1.00
2019-04-06T17:04:16.760Z,1.00
2019-04-06T17:06:49.360Z,1.00
2019-04-06T17:09:34.197Z,1.00
2019-04-06T17:12:21.447Z,1.00
2019-04-06T17:15:00.883Z,1.00
2019-04-06T17:17:35.234Z,1.00
2019-04-06T17:20:10.089Z,1.00
2019-04-06T17:22:40.304Z,1.00
2019-04-06T17:25:10.480Z,1.00
2019-04-06T17:27:57.109Z,1.00
2019-04-06T17:30:27.417Z,1.00
2019-04-06T17:33:00.432Z,1.00
2019-04-06T17:35:40.235Z,1.00
2019-04-06T17:38:28.556Z,1.00
2019-04-06T17:40:58.652Z,1.00
2019-04-06T17:43:28.720Z,1.00
2019-04-06T17:45:58.797Z,1.00
2019-04-06T17:48:45.362Z,1.00
2019-04-06T17:51:18.686Z,1.00
2019-04-06T17:53:52.484Z,1.00
2019-04-06T17:56:26.750Z,1.00
2019-04-06T17:59:13.352Z,1.00
2019-04-06T18:01:43.657Z,1.00
2019-04-06T18:04:13.796Z,1.00
2019-04-06T18:07:00.724Z,25.10
2019-04-06T18:09:49.194Z,99.90
2019-04-06T18:12:19.619Z,1.00
2019-04-06T18:14:48.758Z,99.90
2019-04-06T18:17:17.627Z,99.90
2019-04-06T18:19:46.514Z,1.00
2019-04-06T18:22:15.114Z,99.90
2019-04-06T18:24:43.568Z,1.00
2019-04-06T18:27:11.995Z,1.00
2019-04-06T18:29:40.425Z,1.00
2019-04-06T18:32:10.592Z,8.20
2019-04-06T18:34:39.090Z,81.20
2019-04-06T18:37:12.259Z,99.90
2019-04-06T18:39:40.829Z,5.90
2019-04-06T18:42:09.624Z,99.90
2019-04-06T18:44:38.680Z,99.90
2019-04-06T18:47:07.406Z,1.00
2019-04-06T18:49:36.147Z,99.90
2019-04-06T18:52:05.145Z,69.00
2019-04-06T18:54:33.823Z,99.90
2019-04-06T18:57:02.472Z,99.90
2019-04-06T18:59:31.327Z,99.90
2019-04-06T19:01:59.951Z,1.00
2019-04-06T19:04:29.251Z,1.00
2019-04-06T19:06:58.166Z,1.00
2019-04-06T19:09:26.954Z,1.00
2019-04-06T19:11:57.075Z,1.00
2019-04-06T19:14:26.172Z,1.00
2019-04-06T19:16:55.057Z,1.00
2019-04-06T19:19:23.950Z,1.00
2019-04-06T19:21:52.734Z,1.00
2019-04-06T19:24:21.502Z,1.00
2019-04-06T19:26:50.915Z,1.00
2019-04-06T19:29:19.713Z,1.00
2019-04-06T19:31:48.421Z,1.00
2019-04-06T19:34:17.190Z,1.00
2019-04-06T19:36:45.868Z,1.00
2019-04-06T19:39:15.131Z,1.00
2019-04-06T19:41:44.059Z,1.00
2019-04-06T19:44:13.286Z,1.00
2019-04-06T19:46:42.362Z,1.00
2019-04-06T19:49:11.001Z,1.00
2019-04-06T19:51:39.767Z,1.00
2019-04-06T19:54:08.510Z,1.00
2019-04-06T19:56:37.635Z,1.00
2019-04-06T19:59:06.494Z,1.00
2019-04-06T20:01:35.154Z,1.00
2019-04-06T20:04:04.589Z,1.00
2019-04-06T20:06:33.443Z,1.00
2019-04-06T20:09:02.155Z,1.00
2019-04-06T20:11:30.978Z,1.00
2019-04-06T20:13:59.810Z,1.00
2019-04-06T20:16:28.502Z,1.00
2019-04-06T20:18:57.287Z,1.00
2019-04-06T20:21:26.332Z,5.10
2019-04-06T20:23:55.163Z,2.90
2019-04-06T20:26:23.906Z,1.00
2019-04-06T20:28:53.244Z,1.00
2019-04-06T20:31:21.928Z,1.00
2019-04-06T20:33:52.372Z,27.00
2019-04-06T20:36:20.803Z,32.60
2019-04-06T20:38:49.608Z,42.00
2019-04-06T20:41:18.196Z,38.30
2019-04-06T20:43:46.779Z,41.10
2019-04-06T20:46:15.316Z,38.70
2019-04-06T20:48:43.834Z,36.30
2019-04-06T20:51:12.519Z,42.00
2019-04-06T20:53:41.089Z,41.20
2019-04-06T20:56:09.706Z,45.60
2019-04-06T20:58:38.165Z,45.60
2019-04-06T21:01:06.660Z,42.70
2019-04-06T21:03:35.084Z,41.80
2019-04-06T21:06:04.064Z,36.30
2019-04-06T21:08:33.249Z,41.10
2019-04-06T21:11:02.180Z,52.40
2019-04-06T21:13:30.684Z,51.80
2019-04-06T21:15:59.350Z,54.30
2019-04-06T21:18:27.837Z,55.40
2019-04-06T21:20:56.292Z,53.50
2019-04-06T21:23:24.780Z,51.70
2019-04-06T21:25:53.236Z,51.00
2019-04-06T21:28:21.660Z,49.90
2019-04-06T21:30:50.161Z,45.20
2019-04-06T21:33:18.655Z,45.90
2019-04-06T21:35:47.471Z,47.10
2019-04-06T21:38:15.994Z,44.90
2019-04-06T21:40:44.425Z,46.70
2019-04-06T21:43:13.442Z,48.40
2019-04-06T21:45:42.083Z,51.10
2019-04-06T21:48:10.642Z,52.40
2019-04-06T21:50:39.638Z,54.30
2019-04-06T21:53:08.235Z,49.60
2019-04-06T21:55:36.881Z,41.80
2019-04-06T21:58:05.360Z,30.40
2019-04-06T22:00:41.553Z,36.10
2019-04-06T22:03:10.085Z,32.90
2019-04-06T22:05:38.669Z,22.40
2019-04-06T22:08:07.354Z,23.00
2019-04-06T22:10:35.807Z,26.10
2019-04-06T22:13:04.936Z,33.70
2019-04-06T22:15:33.944Z,36.40
2019-04-06T22:18:02.490Z,42.10
2019-04-06T22:20:30.948Z,45.10
2019-04-06T22:22:59.377Z,55.90
2019-04-06T22:25:27.843Z,61.80
2019-04-06T22:27:56.328Z,49.50
2019-04-06T22:30:24.800Z,52.70
2019-04-06T22:32:53.280Z,57.60
2019-04-06T22:35:22.446Z,55.20
2019-04-06T22:37:54.209Z,51.50
2019-04-06T22:40:21.648Z,50.60
2019-04-06T22:42:50.371Z,49.70
2019-04-06T22:45:20.541Z,45.60
2019-04-06T22:47:49.079Z,45.50
2019-04-06T22:50:17.668Z,46.00
2019-04-06T22:52:46.826Z,50.80
2019-04-06T22:55:15.446Z,53.20
2019-04-06T22:57:43.964Z,55.00
2019-04-06T23:00:16.938Z,58.90
2019-04-06T23:02:52.493Z,57.30
2019-04-06T23:05:28.866Z,56.70
2019-04-06T23:07:57.969Z,55.20
2019-04-06T23:10:26.396Z,58.80
2019-04-06T23:12:55.308Z,61.10
2019-04-06T23:15:24.522Z,67.40
2019-04-06T23:17:53.426Z,74.80
2019-04-06T23:20:21.884Z,72.70
2019-04-06T23:22:50.367Z,68.90
2019-04-06T23:25:18.822Z,70.10
2019-04-06T23:27:47.806Z,70.50
2019-04-06T23:30:16.915Z,74.50
2019-04-06T23:32:45.599Z,74.20
2019-04-06T23:35:14.096Z,72.20
2019-04-06T23:37:42.537Z,76.40
2019-04-06T23:40:11.252Z,68.20
2019-04-06T23:42:40.401Z,60.80
2019-04-06T23:45:09.348Z,60.70
2019-04-06T23:47:37.777Z,60.10
2019-04-06T23:50:07.594Z,62.50
2019-04-06T23:52:36.477Z,61.80
2019-04-06T23:55:07.228Z,62.10
2019-04-06T23:57:36.046Z,63.50
